createdAt,value
2019-05-03T00:02:54.378Z,22.20
2019-05-03T00:05:41.699Z,22.50
2019-05-03T00:08:12.639Z,21.37
2019-05-03T00:10:42.674Z,21.93
2019-05-03T00:13:12.653Z,21.40
2019-05-03T00:15:54.319Z,20.30
2019-05-03T00:18:23.911Z,20.27
2019-05-03T00:20:53.297Z,22.57
2019-05-03T00:23:22.995Z,20.20
2019-05-03T00:25:52.680Z,22.70
2019-05-03T00:28:22.073Z,23.40
2019-05-03T00:30:51.957Z,21.37
2019-05-03T00:33:22.525Z,19.80
2019-05-03T00:36:22.183Z,23.47
2019-05-03T00:38:53.422Z,20.93
2019-05-03T00:41:22.827Z,22.20
2019-05-03T00:43:52.203Z,22.30
2019-05-03T00:46:22.056Z,22.63
2019-05-03T00:48:52.484Z,21.83
2019-05-03T00:51:22.609Z,21.40
2019-05-03T00:53:53.243Z,24.00
2019-05-03T00:56:22.662Z,24.37
2019-05-03T00:58:58.480Z,21.90
2019-05-03T01:01:27.865Z,21.37
2019-05-03T01:03:57.248Z,20.90
2019-05-03T01:06:26.651Z,20.70
2019-05-03T01:08:56.029Z,20.00
2019-05-03T01:11:25.416Z,22.20
2019-05-03T01:13:54.816Z,23.70
2019-05-03T01:16:25.191Z,24.20
2019-05-03T01:18:54.756Z,22.73
2019-05-03T01:21:24.208Z,23.60
2019-05-03T01:23:53.604Z,25.00
2019-05-03T01:26:23.016Z,23.63
2019-05-03T01:28:52.714Z,23.73
2019-05-03T01:31:22.740Z,24.17
2019-05-03T01:33:52.455Z,24.90
2019-05-03T01:36:22.928Z,25.30
2019-05-03T01:38:53.267Z,24.67
2019-05-03T01:41:22.909Z,26.97
2019-05-03T01:43:52.890Z,26.20
2019-05-03T01:46:22.773Z,25.60
2019-05-03T01:49:12.285Z,26.50
2019-05-03T01:52:07.076Z,26.13
2019-05-03T01:54:36.575Z,24.70
2019-05-03T01:57:06.005Z,27.00
2019-05-03T01:59:35.461Z,26.80
2019-05-03T02:02:32.739Z,26.67
2019-05-03T02:05:32.095Z,27.60
2019-05-03T02:08:02.113Z,24.30
2019-05-03T02:10:32.194Z,27.10
2019-05-03T02:13:01.801Z,24.53
2019-05-03T02:15:32.666Z,26.60
2019-05-03T02:18:02.634Z,26.30
2019-05-03T02:20:32.481Z,24.43
2019-05-03T02:23:02.731Z,23.77
2019-05-03T02:25:32.503Z,22.20
2019-05-03T02:28:02.096Z,22.67
2019-05-03T02:30:33.174Z,24.37
2019-05-03T02:33:04.189Z,24.00
2019-05-03T02:35:33.843Z,22.40
2019-05-03T02:38:03.766Z,23.80
2019-05-03T02:40:33.999Z,24.07
2019-05-03T02:43:28.532Z,24.00
2019-05-03T02:46:28.948Z,23.70
2019-05-03T02:49:25.545Z,24.07
2019-05-03T02:51:55.496Z,25.20
2019-05-03T02:54:26.934Z,26.40
2019-05-03T02:56:56.165Z,25.43
2019-05-03T02:59:26.445Z,24.20
2019-05-03T03:01:56.653Z,22.73
2019-05-03T03:04:27.266Z,25.47
2019-05-03T03:06:58.915Z,22.77
2019-05-03T03:09:29.250Z,24.60
2019-05-03T03:12:01.784Z,26.27
2019-05-03T03:14:36.006Z,24.53
2019-05-03T03:17:07.123Z,26.03
2019-05-03T03:19:38.473Z,25.80
2019-05-03T03:22:11.186Z,27.37
2019-05-03T03:24:45.840Z,26.50
2019-05-03T03:27:18.353Z,26.03
2019-05-03T03:29:51.399Z,25.83
2019-05-03T03:32:29.029Z,26.80
2019-05-03T03:35:19.715Z,26.87
2019-05-03T03:37:46.180Z,24.00
2019-05-03T03:40:18.582Z,25.13
2019-05-03T03:42:51.081Z,24.70
2019-05-03T03:45:20.462Z,25.30
2019-05-03T03:47:56.378Z,24.37
2019-05-03T03:50:26.227Z,25.53
2019-05-03T03:52:56.944Z,23.50
2019-05-03T03:55:28.512Z,24.87
2019-05-03T03:57:58.494Z,27.73
2019-05-03T04:00:28.215Z,23.73
2019-05-03T04:02:57.771Z,26.27
2019-05-03T04:05:27.154Z,23.73
2019-05-03T04:07:56.950Z,23.27
2019-05-03T04:10:27.162Z,24.00
2019-05-03T04:12:57.704Z,21.73
2019-05-03T04:15:48.280Z,22.93
2019-05-03T04:18:36.116Z,21.90
2019-05-03T04:21:06.079Z,20.13
2019-05-03T04:23:36.030Z,21.80
2019-05-03T04:26:07.043Z,20.00
2019-05-03T04:28:37.294Z,22.07
2019-05-03T04:31:06.683Z,21.60
2019-05-03T04:33:36.164Z,21.23
2019-05-03T04:36:05.852Z,21.37
2019-05-03T04:38:35.777Z,19.97
2019-05-03T04:41:06.101Z,20.30
2019-05-03T04:43:35.858Z,18.23
2019-05-03T04:46:26.018Z,19.63
2019-05-03T04:48:56.416Z,19.47
2019-05-03T04:51:26.259Z,21.43
2019-05-03T04:54:16.114Z,19.17
2019-05-03T04:56:46.466Z,19.37
2019-05-03T04:59:16.232Z,20.37
2019-05-03T05:01:46.189Z,19.37
2019-05-03T05:04:16.281Z,22.20
2019-05-03T05:06:45.734Z,18.63
2019-05-03T05:09:15.695Z,18.33
2019-05-03T05:11:45.811Z,19.50
2019-05-03T05:14:15.605Z,18.70
2019-05-03T05:16:46.609Z,18.80
2019-05-03T05:19:19.541Z,16.93
2019-05-03T05:21:54.938Z,19.10
2019-05-03T05:24:25.568Z,16.03
2019-05-03T05:27:20.104Z,17.10
2019-05-03T05:29:49.601Z,17.43
2019-05-03T05:32:19.085Z,16.27
2019-05-03T05:34:48.486Z,17.60
2019-05-03T05:37:17.880Z,18.37
2019-05-03T05:39:47.282Z,16.57
2019-05-03T05:42:16.675Z,17.70
2019-05-03T05:44:46.063Z,17.70
2019-05-03T05:47:34.650Z,16.50
2019-05-03T05:50:11.325Z,18.60
2019-05-03T05:52:40.803Z,17.37
2019-05-03T05:55:47.738Z,17.63
2019-05-03T05:58:20.698Z,17.50
2019-05-03T06:00:57.030Z,17.20
2019-05-03T06:03:26.450Z,17.57
2019-05-03T06:05:57.497Z,18.50
2019-05-03T06:08:45.824Z,16.77
2019-05-03T06:11:26.063Z,19.83
2019-05-03T06:14:17.662Z,19.90
2019-05-03T06:17:00.840Z,20.40
2019-05-03T06:19:49.166Z,18.73
2019-05-03T06:22:29.226Z,19.07
2019-05-03T06:25:06.397Z,17.40
2019-05-03T06:27:37.458Z,18.90
2019-05-03T06:30:16.976Z,19.50
2019-05-03T06:32:46.383Z,19.33
2019-05-03T06:35:15.763Z,16.30
2019-05-03T06:37:46.057Z,17.10
2019-05-03T06:40:15.634Z,18.33
2019-05-03T06:42:52.300Z,17.67
2019-05-03T06:45:16.473Z,19.53
2019-05-03T06:47:49.881Z,18.63
2019-05-03T06:50:19.643Z,18.80
2019-05-03T06:52:48.336Z,20.23
2019-05-03T06:55:17.740Z,20.07
2019-05-03T06:57:49.740Z,18.87
2019-05-03T07:00:38.390Z,19.77
2019-05-03T07:03:21.639Z,22.93
2019-05-03T07:06:08.583Z,21.43
2019-05-03T07:08:54.936Z,22.30
2019-05-03T07:11:24.794Z,21.87
2019-05-03T07:13:55.006Z,21.93
2019-05-03T07:16:25.289Z,21.77
2019-05-03T07:18:58.117Z,12.03
2019-05-03T07:21:26.098Z,7.50
2019-05-03T07:23:55.506Z,7.57
2019-05-03T07:26:25.503Z,5.83
2019-05-03T07:28:54.996Z,4.90
2019-05-03T07:31:25.570Z,4.60
2019-05-03T07:33:55.252Z,4.40
2019-05-03T07:36:28.080Z,5.10
2019-05-03T07:38:55.786Z,4.63
2019-05-03T07:41:27.212Z,5.77
2019-05-03T07:43:56.323Z,5.53
2019-05-03T07:46:25.708Z,5.20
2019-05-03T07:48:55.076Z,6.20
2019-05-03T07:51:24.991Z,5.33
2019-05-03T07:53:55.527Z,5.43
2019-05-03T07:56:29.436Z,5.53
2019-05-03T07:59:05.650Z,5.67
2019-05-03T08:01:36.117Z,5.10
2019-05-03T08:04:06.258Z,6.10
2019-05-03T08:06:35.828Z,4.70
2019-05-03T08:09:10.335Z,4.80
2019-05-03T08:11:39.913Z,4.63
2019-05-03T08:14:09.359Z,5.00
2019-05-03T08:16:38.832Z,5.37
2019-05-03T08:19:08.230Z,4.40
2019-05-03T08:21:38.764Z,4.80
2019-05-03T08:24:08.598Z,4.53
2019-05-03T08:26:37.974Z,5.53
2019-05-03T08:29:16.160Z,3.80
2019-05-03T08:32:00.278Z,4.70
2019-05-03T08:34:55.588Z,5.20
2019-05-03T08:37:29.851Z,4.13
2019-05-03T08:39:59.588Z,4.40
2019-05-03T08:42:29.044Z,4.93
2019-05-03T08:44:58.644Z,3.90
2019-05-03T08:47:28.174Z,4.60
2019-05-03T08:50:00.066Z,5.40
2019-05-03T08:52:29.461Z,5.60
2019-05-03T08:54:59.015Z,3.97
2019-05-03T08:57:28.422Z,4.87
2019-05-03T08:59:58.193Z,4.73
2019-05-03T09:02:27.602Z,5.20
2019-05-03T09:04:56.987Z,5.83
2019-05-03T09:07:26.502Z,6.20
2019-05-03T09:10:12.227Z,4.77
2019-05-03T09:12:57.810Z,5.80
2019-05-03T09:15:27.226Z,5.30
2019-05-03T09:17:56.889Z,5.97
2019-05-03T09:20:26.283Z,5.03
2019-05-03T09:22:56.022Z,5.50
2019-05-03T09:25:25.433Z,5.80
2019-05-03T09:27:55.270Z,5.90
2019-05-03T09:30:25.203Z,6.37
2019-05-03T09:32:55.714Z,5.73
2019-05-03T09:35:32.144Z,6.00
2019-05-03T09:37:56.572Z,6.20
2019-05-03T09:40:26.091Z,5.53
2019-05-03T09:42:55.458Z,5.50
2019-05-03T09:45:24.822Z,5.53
2019-05-03T09:47:55.169Z,7.23
2019-05-03T09:50:24.870Z,5.50
2019-05-03T09:52:55.433Z,5.00
2019-05-03T09:55:30.308Z,5.37
2019-05-03T09:58:00.036Z,6.20
2019-05-03T10:00:29.410Z,4.80
2019-05-03T10:02:59.035Z,5.10
2019-05-03T10:05:28.385Z,4.60
2019-05-03T10:07:57.946Z,3.77
2019-05-03T10:10:27.422Z,4.10
2019-05-03T10:12:58.357Z,4.13
2019-05-03T10:15:41.360Z,3.70
2019-05-03T10:18:14.099Z,2.57
2019-05-03T10:20:44.655Z,2.43
2019-05-03T10:23:33.109Z,2.33
2019-05-03T10:26:02.462Z,2.17
2019-05-03T10:28:31.970Z,1.50
2019-05-03T10:31:01.640Z,2.27
2019-05-03T10:33:35.758Z,1.80
2019-05-03T10:36:05.608Z,1.80
2019-05-03T10:38:35.038Z,1.83
2019-05-03T10:41:05.821Z,1.70
2019-05-03T10:43:35.607Z,1.50
2019-05-03T10:46:06.692Z,2.23
2019-05-03T10:48:36.237Z,1.67
2019-05-03T10:51:05.857Z,1.30
2019-05-03T10:53:38.544Z,1.00
2019-05-03T10:56:26.747Z,1.27
2019-05-03T10:59:03.484Z,0.90
2019-05-03T11:01:55.093Z,1.20
2019-05-03T11:04:25.600Z,1.50
2019-05-03T11:06:55.277Z,1.47
2019-05-03T11:09:25.943Z,1.20
2019-05-03T11:11:55.775Z,1.20
2019-05-03T11:14:25.638Z,1.70
2019-05-03T11:16:55.409Z,1.20
2019-05-03T11:19:25.502Z,2.10
2019-05-03T11:21:55.154Z,1.20
2019-05-03T11:24:27.134Z,1.13
2019-05-03T11:27:00.044Z,1.07
2019-05-03T11:29:29.124Z,1.10
2019-05-03T11:32:20.294Z,1.57
2019-05-03T11:34:59.097Z,1.43
2019-05-03T11:37:45.520Z,1.60
2019-05-03T11:40:15.684Z,3.80
2019-05-03T11:42:45.433Z,1.20
2019-05-03T11:45:15.379Z,1.57
2019-05-03T11:47:45.647Z,1.50
2019-05-03T11:50:15.679Z,1.20
2019-05-03T11:52:47.090Z,1.70
2019-05-03T11:55:16.401Z,1.83
2019-05-03T11:57:45.773Z,1.70
2019-05-03T12:00:19.957Z,1.37
2019-05-03T12:03:10.730Z,1.20
2019-05-03T12:05:41.673Z,1.57
2019-05-03T12:08:11.072Z,1.43
2019-05-03T12:10:52.980Z,1.87
2019-05-03T12:13:20.611Z,1.30
2019-05-03T12:15:50.046Z,1.70
2019-05-03T12:18:19.695Z,1.90
2019-05-03T12:20:50.141Z,1.80
2019-05-03T12:23:20.667Z,1.83
2019-05-03T12:25:51.523Z,1.80
2019-05-03T12:28:21.348Z,1.70
2019-05-03T12:30:50.756Z,1.90
2019-05-03T12:33:20.135Z,5.57
2019-05-03T12:35:49.487Z,1.90
2019-05-03T12:38:18.889Z,2.30
2019-05-03T12:40:48.282Z,2.17
2019-05-03T12:43:17.691Z,1.80
2019-05-03T12:45:47.086Z,1.70
2019-05-03T12:48:16.589Z,1.90
2019-05-03T12:50:46.926Z,2.10
2019-05-03T12:53:16.789Z,1.87
2019-05-03T12:55:46.254Z,1.50
2019-05-03T12:58:15.869Z,2.07
2019-05-03T13:01:04.958Z,1.93
2019-05-03T13:03:41.265Z,2.20
2019-05-03T13:06:10.627Z,2.50
2019-05-03T13:08:45.576Z,2.50
2019-05-03T13:11:15.215Z,2.80
2019-05-03T13:13:45.294Z,2.50
2019-05-03T13:16:18.443Z,2.70
2019-05-03T13:18:47.915Z,2.50
2019-05-03T13:21:17.538Z,2.77
2019-05-03T13:23:46.903Z,2.43
2019-05-03T13:26:16.473Z,2.60
2019-05-03T13:28:45.846Z,2.57
2019-05-03T13:31:16.150Z,2.93
2019-05-03T13:33:45.679Z,2.37
2019-05-03T13:36:15.279Z,3.50
2019-05-03T13:38:45.344Z,3.33
2019-05-03T13:41:14.779Z,3.40
2019-05-03T13:43:46.583Z,3.60
2019-05-03T13:46:16.042Z,3.03
2019-05-03T13:48:48.850Z,3.97
2019-05-03T13:51:20.354Z,3.93
2019-05-03T13:53:49.978Z,3.50
2019-05-03T13:56:19.343Z,3.77
2019-05-03T13:58:48.722Z,3.87
2019-05-03T14:01:18.355Z,4.07
2019-05-03T14:03:47.813Z,3.50
2019-05-03T14:06:17.232Z,3.27
2019-05-03T14:08:46.610Z,4.40
2019-05-03T14:11:16.002Z,4.00
2019-05-03T14:13:45.673Z,6.10
2019-05-03T14:16:15.057Z,4.00
2019-05-03T14:18:46.993Z,4.13
2019-05-03T14:21:21.474Z,4.37
2019-05-03T14:24:08.672Z,3.97
2019-05-03T14:26:38.406Z,4.50
2019-05-03T14:29:07.935Z,3.70
2019-05-03T14:31:37.348Z,3.33
2019-05-03T14:34:06.769Z,3.80
2019-05-03T14:36:36.154Z,3.17
2019-05-03T14:39:09.743Z,4.60
2019-05-03T14:41:38.911Z,3.63
2019-05-03T14:44:08.295Z,2.90
2019-05-03T14:46:37.772Z,3.60
2019-05-03T14:49:07.179Z,4.07
2019-05-03T14:51:36.545Z,3.63
2019-05-03T14:54:06.981Z,2.87
2019-05-03T14:56:45.752Z,3.30
2019-05-03T14:59:34.609Z,3.30
2019-05-03T15:02:20.417Z,3.67
2019-05-03T15:04:49.853Z,4.23
2019-05-03T15:07:19.255Z,3.10
2019-05-03T15:09:48.634Z,2.73
2019-05-03T15:12:18.149Z,2.97
2019-05-03T15:14:47.541Z,3.80
2019-05-03T15:17:16.930Z,3.50
2019-05-03T15:19:46.303Z,4.20
2019-05-03T15:22:15.700Z,4.30
2019-05-03T15:24:45.180Z,4.23
2019-05-03T15:27:14.542Z,3.07
2019-05-03T15:29:44.840Z,4.90
2019-05-03T15:32:15.462Z,3.23
2019-05-03T15:34:45.218Z,3.50
2019-05-03T15:37:14.948Z,2.73
2019-05-03T15:39:45.699Z,3.30
2019-05-03T15:42:15.541Z,3.10
2019-05-03T15:45:05.276Z,3.17
2019-05-03T15:47:43.265Z,3.87
2019-05-03T15:50:12.870Z,3.77
2019-05-03T15:52:44.369Z,4.10
2019-05-03T15:55:15.228Z,2.73
2019-05-03T15:57:44.946Z,3.57
2019-05-03T16:00:16.725Z,4.70
2019-05-03T16:02:46.314Z,3.30
2019-05-03T16:05:15.722Z,3.13
2019-05-03T16:07:45.063Z,3.27
2019-05-03T16:10:15.386Z,4.23
2019-05-03T16:12:45.062Z,3.73
2019-05-03T16:15:14.355Z,3.97
2019-05-03T16:17:44.929Z,3.50
2019-05-03T16:20:14.952Z,4.70
2019-05-03T16:22:46.406Z,4.27
2019-05-03T16:25:15.823Z,4.07
2019-05-03T16:28:10.048Z,4.37
2019-05-03T16:30:56.721Z,3.43
2019-05-03T16:33:28.193Z,4.10
2019-05-03T16:35:57.231Z,3.00
2019-05-03T16:38:26.656Z,4.00
2019-05-03T16:40:56.016Z,3.83
2019-05-03T16:43:25.762Z,4.00
2019-05-03T16:45:55.345Z,4.37
2019-05-03T16:48:24.866Z,4.67
2019-05-03T16:50:54.502Z,4.23
2019-05-03T16:53:25.514Z,4.07
2019-05-03T16:55:54.969Z,3.83
2019-05-03T16:58:24.746Z,3.97
2019-05-03T17:00:55.302Z,3.50
2019-05-03T17:03:38.180Z,4.10
2019-05-03T17:06:19.335Z,4.10
2019-05-03T17:09:05.337Z,3.80
2019-05-03T17:11:34.814Z,4.20
2019-05-03T17:14:05.008Z,3.87
2019-05-03T17:16:34.580Z,4.10
2019-05-03T17:19:05.835Z,4.30
2019-05-03T17:21:35.376Z,3.80
2019-05-03T17:24:06.307Z,4.63
2019-05-03T17:26:36.179Z,4.63
2019-05-03T17:29:05.604Z,4.57
2019-05-03T17:31:35.322Z,4.87
2019-05-03T17:34:05.560Z,4.50
2019-05-03T17:36:35.013Z,3.83
2019-05-03T17:39:09.026Z,5.00
2019-05-03T17:41:56.182Z,4.03
2019-05-03T17:44:30.011Z,4.60
2019-05-03T17:46:59.406Z,4.20
2019-05-03T17:49:28.823Z,6.10
2019-05-03T17:52:20.382Z,5.00
2019-05-03T17:55:08.725Z,3.90
2019-05-03T17:57:57.058Z,4.43
2019-05-03T18:00:36.187Z,4.23
2019-05-03T18:03:06.750Z,3.70
2019-05-03T18:05:44.989Z,3.13
2019-05-03T18:08:30.783Z,3.20
2019-05-03T18:11:06.719Z,3.13
2019-05-03T18:13:36.214Z,3.37
2019-05-03T18:16:08.797Z,4.13
2019-05-03T18:18:38.183Z,4.37
2019-05-03T18:21:07.604Z,4.10
2019-05-03T18:23:36.973Z,4.67
2019-05-03T18:26:06.412Z,4.20
2019-05-03T18:28:35.827Z,4.00
2019-05-03T18:31:08.564Z,4.17
2019-05-03T18:33:36.682Z,4.60
2019-05-03T18:36:06.056Z,4.63
2019-05-03T18:38:39.829Z,4.40
2019-05-03T18:41:11.433Z,4.50
2019-05-03T18:43:59.761Z,5.10
2019-05-03T18:46:40.050Z,4.87
2019-05-03T18:49:09.426Z,4.83
2019-05-03T18:51:39.019Z,5.00
2019-05-03T18:54:08.397Z,4.70
2019-05-03T18:56:37.779Z,4.07
2019-05-03T18:59:07.530Z,4.97
2019-05-03T19:01:37.065Z,5.00
2019-05-03T19:04:15.096Z,4.67
2019-05-03T19:06:45.173Z,4.70
2019-05-03T19:09:34.517Z,5.33
2019-05-03T19:12:21.966Z,5.83
2019-05-03T19:14:51.423Z,4.70
2019-05-03T19:17:30.847Z,6.20
2019-05-03T19:20:00.384Z,5.70
2019-05-03T19:22:30.036Z,5.70
2019-05-03T19:24:59.553Z,5.53
2019-05-03T19:27:28.937Z,4.93
2019-05-03T19:29:58.445Z,4.60
2019-05-03T19:32:28.306Z,4.30
2019-05-03T19:34:58.435Z,5.53
2019-05-03T19:37:28.002Z,5.73
2019-05-03T19:39:57.497Z,7.97
2019-05-03T19:42:27.403Z,7.23
2019-05-03T19:44:56.838Z,4.40
2019-05-03T19:47:26.343Z,4.83
2019-05-03T19:49:55.730Z,5.00
2019-05-03T19:52:28.301Z,6.57
2019-05-03T19:54:57.683Z,5.77
2019-05-03T19:57:32.320Z,6.50
2019-05-03T20:00:01.698Z,5.93
2019-05-03T20:02:56.143Z,5.43
2019-05-03T20:05:50.575Z,9.63
2019-05-03T20:08:27.042Z,11.00
2019-05-03T20:11:15.500Z,8.73
2019-05-03T20:13:45.560Z,7.53
2019-05-03T20:16:15.508Z,6.50
2019-05-03T20:18:45.711Z,12.70
2019-05-03T20:21:15.370Z,4.90
2019-05-03T20:23:47.054Z,5.43
2019-05-03T20:26:15.898Z,6.03
2019-05-03T20:28:45.287Z,6.37
2019-05-03T20:31:14.859Z,7.80
2019-05-03T20:33:45.789Z,5.43
2019-05-03T20:36:15.355Z,7.53
2019-05-03T20:38:44.730Z,7.40
2019-05-03T20:41:14.806Z,6.27
2019-05-03T20:43:55.669Z,5.97
2019-05-03T20:46:29.945Z,5.97
2019-05-03T20:49:04.345Z,5.60
2019-05-03T20:51:34.581Z,5.90
2019-05-03T20:54:04.911Z,6.70
2019-05-03T20:56:34.467Z,6.93
2019-05-03T20:59:05.465Z,8.43
2019-05-03T21:01:35.941Z,8.30
2019-05-03T21:04:06.259Z,7.80
2019-05-03T21:06:36.031Z,8.10
2019-05-03T21:09:08.419Z,8.53
2019-05-03T21:11:38.372Z,6.00
2019-05-03T21:14:08.348Z,6.77
2019-05-03T21:16:54.675Z,6.60
2019-05-03T21:19:40.825Z,8.63
2019-05-03T21:22:14.456Z,6.60
2019-05-03T21:25:01.845Z,6.70
2019-05-03T21:27:31.264Z,7.50
2019-05-03T21:30:00.665Z,6.73
2019-05-03T21:32:30.067Z,7.43
2019-05-03T21:34:59.474Z,8.50
2019-05-03T21:37:29.039Z,8.60
2019-05-03T21:39:58.536Z,9.43
2019-05-03T21:42:31.019Z,7.30
2019-05-03T21:45:02.080Z,6.80
2019-05-03T21:47:50.352Z,7.00
2019-05-03T21:50:20.822Z,6.73
2019-05-03T21:52:50.223Z,6.33
2019-05-03T21:55:19.617Z,6.40
2019-05-03T21:57:49.033Z,6.77
2019-05-03T22:00:20.094Z,6.10
2019-05-03T22:02:50.001Z,6.23
2019-05-03T22:05:19.400Z,5.80
2019-05-03T22:07:48.923Z,6.63
2019-05-03T22:10:19.143Z,6.27
2019-05-03T22:12:48.542Z,6.50
2019-05-03T22:15:26.482Z,6.70
2019-05-03T22:18:06.081Z,5.33
2019-05-03T22:20:54.933Z,5.50
2019-05-03T22:23:45.277Z,7.23
2019-05-03T22:26:15.443Z,6.70
2019-05-03T22:28:45.042Z,6.67
2019-05-03T22:31:15.325Z,7.60
2019-05-03T23:54:06.459Z,7.73
2019-05-03T23:56:36.153Z,7.57
2019-05-03T23:59:05.650Z,7.17
